sensor_id;sensor_type;location;lat;lon;timestamp;temperature;humidity
23729;DHT22;12045;60.214;24.724;2023-03-01T00:01:40;-0.20;99.90
23729;DHT22;12045;60.214;24.724;2023-03-01T00:04:08;0.00;99.90
23729;DHT22;12045;60.214;24.724;2023-03-01T00:06:36;-0.10;99.90
23729;DHT22;12045;60.214;24.724;2023-03-01T00:09:04;-0.20;99.90
23729;DHT22;12045;60.214;24.724;2023-03-01T00:11:33;0.20;99.90
23729;DHT22;12045;60.214;24.724;2023-03-01T00:14:02;-0.40;99.90
23729;DHT22;12045;60.214;24.724;2023-03-01T00:16:42;-0.40;99.90
23729;DHT22;12045;60.214;24.724;2023-03-01T00:19:14;-0.50;99.90
23729;DHT22;12045;60.214;24.724;2023-03-01T00:21:41;-0.40;99.90
23729;DHT22;12045;60.214;24.724;2023-03-01T00:24:09;-0.40;99.90
23729;DHT22;12045;60.214;24.724;2023-03-01T00:26:38;-0.40;99.90
23729;DHT22;12045;60.214;24.724;2023-03-01T00:29:05;0.40;99.90
23729;DHT22;12045;60.214;24.724;2023-03-01T00:31:33;0.00;99.90
23729;DHT22;12045;60.214;24.724;2023-03-01T00:34:03;-0.50;99.90
23729;DHT22;12045;60.214;24.724;2023-03-01T00:36:34;-0.10;99.90
23729;DHT22;12045;60.214;24.724;2023-03-01T00:39:03;-0.50;99.90
23729;DHT22;12045;60.214;24.724;2023-03-01T00:41:31;-0.50;99.90
23729;DHT22;12045;60.214;24.724;2023-03-01T00:44:01;-0.60;99.90
23729;DHT22;12045;60.214;24.724;2023-03-01T00:46:29;-0.10;99.90
23729;DHT22;12045;60.214;24.724;2023-03-01T00:48:58;-0.50;99.90
23729;DHT22;12045;60.214;24.724;2023-03-01T00:51:28;-0.20;99.90
23729;DHT22;12045;60.214;24.724;2023-03-01T00:53:58;0.10;99.90
23729;DHT22;12045;60.214;24.724;2023-03-01T00:56:26;-0.50;99.90
23729;DHT22;12045;60.214;24.724;2023-03-01T00:58:55;-0.40;99.90
23729;DHT22;12045;60.214;24.724;2023-03-01T01:01:26;0.10;99.90
23729;DHT22;12045;60.214;24.724;2023-03-01T01:03:59;-0.40;99.90
23729;DHT22;12045;60.214;24.724;2023-03-01T01:06:29;0.20;99.90
23729;DHT22;12045;60.214;24.724;2023-03-01T01:08:58;-0.30;99.90
23729;DHT22;12045;60.214;24.724;2023-03-01T01:11:27;0.10;99.90
23729;DHT22;12045;60.214;24.724;2023-03-01T01:13:56;0.00;99.90
23729;DHT22;12045;60.214;24.724;2023-03-01T01:16:25;-0.20;99.90
23729;DHT22;12045;60.214;24.724;2023-03-01T01:18:53;-0.40;99.90
23729;DHT22;12045;60.214;24.724;2023-03-01T01:21:23;-0.50;99.90
23729;DHT22;12045;60.214;24.724;2023-03-01T01:23:51;-0.10;99.90
23729;DHT22;12045;60.214;24.724;2023-03-01T01:26:29;-0.10;99.90
23729;DHT22;12045;60.214;24.724;2023-03-01T01:28:58;-0.40;99.90
23729;DHT22;12045;60.214;24.724;2023-03-01T01:31:26;-0.30;99.90
23729;DHT22;12045;60.214;24.724;2023-03-01T01:33:56;-0.10;99.90
23729;DHT22;12045;60.214;24.724;2023-03-01T01:36:23;-0.60;99.90
23729;DHT22;12045;60.214;24.724;2023-03-01T01:38:51;-0.50;99.90
23729;DHT22;12045;60.214;24.724;2023-03-01T01:41:20;-0.40;99.90
23729;DHT22;12045;60.214;24.724;2023-03-01T01:44:08;-0.60;99.90
23729;DHT22;12045;60.214;24.724;2023-03-01T01:46:40;-0.30;99.90
23729;DHT22;12045;60.214;24.724;2023-03-01T01:49:17;-0.60;99.90
23729;DHT22;12045;60.214;24.724;2023-03-01T01:51:47;-0.70;99.90
23729;DHT22;12045;60.214;24.724;2023-03-01T01:54:25;-0.20;99.90
23729;DHT22;12045;60.214;24.724;2023-03-01T01:57:00;-0.50;99.90
23729;DHT22;12045;60.214;24.724;2023-03-01T01:59:30;-0.80;99.90
23729;DHT22;12045;60.214;24.724;2023-03-01T02:02:01;-1.30;99.90
23729;DHT22;12045;60.214;24.724;2023-03-01T02:04:30;-0.30;99.90
23729;DHT22;12045;60.214;24.724;2023-03-01T02:07:03;-0.70;99.90
23729;DHT22;12045;60.214;24.724;2023-03-01T02:09:33;-0.40;99.90
23729;DHT22;12045;60.214;24.724;2023-03-01T02:12:02;-0.50;99.90
23729;DHT22;12045;60.214;24.724;2023-03-01T02:14:31;-0.80;99.90
23729;DHT22;12045;60.214;24.724;2023-03-01T02:16:59;-0.60;99.90
23729;DHT22;12045;60.214;24.724;2023-03-01T02:22:27;-0.90;99.90
23729;DHT22;12045;60.214;24.724;2023-03-01T02:25:36;-0.60;99.90
23729;DHT22;12045;60.214;24.724;2023-03-01T02:28:31;-0.80;99.90
23729;DHT22;12045;60.214;24.724;2023-03-01T02:31:00;-0.30;99.90
23729;DHT22;12045;60.214;24.724;2023-03-01T02:33:47;-0.60;99.90
23729;DHT22;12045;60.214;24.724;2023-03-01T02:36:28;-0.30;99.90
23729;DHT22;12045;60.214;24.724;2023-03-01T02:38:59;-0.40;99.90
23729;DHT22;12045;60.214;24.724;2023-03-01T02:41:31;-0.70;99.90
23729;DHT22;12045;60.214;24.724;2023-03-01T02:44:00;-0.60;99.90
23729;DHT22;12045;60.214;24.724;2023-03-01T02:46:28;-0.60;99.90
23729;DHT22;12045;60.214;24.724;2023-03-01T02:48:58;-0.70;99.90
23729;DHT22;12045;60.214;24.724;2023-03-01T02:51:28;-0.70;99.90
23729;DHT22;12045;60.214;24.724;2023-03-01T02:56:36;-1.00;99.90
23729;DHT22;12045;60.214;24.724;2023-03-01T02:59:04;0.00;99.90
23729;DHT22;12045;60.214;24.724;2023-03-01T03:01:32;-0.70;99.90
23729;DHT22;12045;60.214;24.724;2023-03-01T03:04:11;-0.80;99.90
23729;DHT22;12045;60.214;24.724;2023-03-01T03:06:45;-1.10;99.90
23729;DHT22;12045;60.214;24.724;2023-03-01T03:09:14;-0.70;99.90
23729;DHT22;12045;60.214;24.724;2023-03-01T03:11:43;-0.70;99.90
23729;DHT22;12045;60.214;24.724;2023-03-01T03:14:12;-0.90;99.90
23729;DHT22;12045;60.214;24.724;2023-03-01T03:16:42;-0.30;99.90
23729;DHT22;12045;60.214;24.724;2023-03-01T03:19:10;-0.50;99.90
23729;DHT22;12045;60.214;24.724;2023-03-01T03:21:37;-0.80;99.90
23729;DHT22;12045;60.214;24.724;2023-03-01T03:24:05;-0.50;99.90
23729;DHT22;12045;60.214;24.724;2023-03-01T03:26:33;-1.00;99.90
23729;DHT22;12045;60.214;24.724;2023-03-01T03:29:00;-0.10;99.90
23729;DHT22;12045;60.214;24.724;2023-03-01T03:31:28;-1.30;99.90
23729;DHT22;12045;60.214;24.724;2023-03-01T03:33:56;-1.00;99.90
23729;DHT22;12045;60.214;24.724;2023-03-01T03:36:25;-0.90;99.90
23729;DHT22;12045;60.214;24.724;2023-03-01T03:38:53;-0.60;99.90
23729;DHT22;12045;60.214;24.724;2023-03-01T03:41:20;-0.30;99.90
23729;DHT22;12045;60.214;24.724;2023-03-01T03:43:48;-0.50;99.90
23729;DHT22;12045;60.214;24.724;2023-03-01T03:46:16;-0.90;99.90
23729;DHT22;12045;60.214;24.724;2023-03-01T03:48:45;-1.20;99.90
23729;DHT22;12045;60.214;24.724;2023-03-01T03:51:15;-0.70;99.90
23729;DHT22;12045;60.214;24.724;2023-03-01T03:53:44;-1.10;99.90
23729;DHT22;12045;60.214;24.724;2023-03-01T03:56:12;-0.80;99.90
23729;DHT22;12045;60.214;24.724;2023-03-01T03:58:40;-0.50;99.90
23729;DHT22;12045;60.214;24.724;2023-03-01T04:01:07;-0.40;99.90
23729;DHT22;12045;60.214;24.724;2023-03-01T04:03:35;-0.20;99.90
23729;DHT22;12045;60.214;24.724;2023-03-01T04:06:03;-1.10;99.90
23729;DHT22;12045;60.214;24.724;2023-03-01T04:08:32;-1.10;99.90
23729;DHT22;12045;60.214;24.724;2023-03-01T04:11:04;-0.60;99.90
23729;DHT22;12045;60.214;24.724;2023-03-01T04:13:53;-0.90;99.90
23729;DHT22;12045;60.214;24.724;2023-03-01T04:16:21;-0.50;99.90
23729;DHT22;12045;60.214;24.724;2023-03-01T04:18:49;-0.80;99.90
23729;DHT22;12045;60.214;24.724;2023-03-01T04:21:17;0.30;99.90
23729;DHT22;12045;60.214;24.724;2023-03-01T04:23:44;1.00;99.90
23729;DHT22;12045;60.214;24.724;2023-03-01T04:26:12;-0.40;99.90
23729;DHT22;12045;60.214;24.724;2023-03-01T04:28:41;-1.40;99.90
23729;DHT22;12045;60.214;24.724;2023-03-01T04:31:16;0.50;99.90
23729;DHT22;12045;60.214;24.724;2023-03-01T04:33:53;1.20;99.90
23729;DHT22;12045;60.214;24.724;2023-03-01T04:36:24;-1.40;99.90
23729;DHT22;12045;60.214;24.724;2023-03-01T04:38:52;2.40;99.90
23729;DHT22;12045;60.214;24.724;2023-03-01T04:41:22;-0.40;99.90
23729;DHT22;12045;60.214;24.724;2023-03-01T04:43:50;1.20;99.90
23729;DHT22;12045;60.214;24.724;2023-03-01T04:46:20;1.10;99.90
23729;DHT22;12045;60.214;24.724;2023-03-01T04:48:48;-1.20;99.90
23729;DHT22;12045;60.214;24.724;2023-03-01T04:51:16;-1.50;99.90
23729;DHT22;12045;60.214;24.724;2023-03-01T04:53:45;-1.50;99.90
23729;DHT22;12045;60.214;24.724;2023-03-01T04:56:13;0.00;99.90
23729;DHT22;12045;60.214;24.724;2023-03-01T04:58:42;-1.50;99.90
23729;DHT22;12045;60.214;24.724;2023-03-01T05:01:11;-0.20;99.90
23729;DHT22;12045;60.214;24.724;2023-03-01T05:03:50;0.60;99.90
23729;DHT22;12045;60.214;24.724;2023-03-01T05:06:20;-0.10;99.90
23729;DHT22;12045;60.214;24.724;2023-03-01T05:08:48;0.10;99.90
23729;DHT22;12045;60.214;24.724;2023-03-01T05:11:15;-1.30;99.90
23729;DHT22;12045;60.214;24.724;2023-03-01T05:13:43;0.40;99.90
23729;DHT22;12045;60.214;24.724;2023-03-01T05:16:11;1.30;99.90
23729;DHT22;12045;60.214;24.724;2023-03-01T05:18:40;2.10;99.90
23729;DHT22;12045;60.214;24.724;2023-03-01T05:21:13;1.50;99.90
23729;DHT22;12045;60.214;24.724;2023-03-01T05:23:44;-1.00;99.90
23729;DHT22;12045;60.214;24.724;2023-03-01T05:26:11;0.60;99.90
23729;DHT22;12045;60.214;24.724;2023-03-01T05:28:54;-2.20;99.90
23729;DHT22;12045;60.214;24.724;2023-03-01T05:31:26;1.70;99.90
23729;DHT22;12045;60.214;24.724;2023-03-01T05:33:54;2.00;99.90
23729;DHT22;12045;60.214;24.724;2023-03-01T05:36:22;0.40;99.90
23729;DHT22;12045;60.214;24.724;2023-03-01T05:38:49;-1.30;99.90
23729;DHT22;12045;60.214;24.724;2023-03-01T05:41:17;-1.40;99.90
23729;DHT22;12045;60.214;24.724;2023-03-01T05:43:44;-1.10;99.90
23729;DHT22;12045;60.214;24.724;2023-03-01T05:46:12;-1.00;99.90
23729;DHT22;12045;60.214;24.724;2023-03-01T05:48:40;-1.10;99.90
23729;DHT22;12045;60.214;24.724;2023-03-01T05:51:08;1.00;99.90
23729;DHT22;12045;60.214;24.724;2023-03-01T05:53:35;-0.20;99.90
23729;DHT22;12045;60.214;24.724;2023-03-01T05:56:04;0.20;99.90
23729;DHT22;12045;60.214;24.724;2023-03-01T05:58:31;-0.90;99.90
23729;DHT22;12045;60.214;24.724;2023-03-01T06:00:59;0.50;99.90
23729;DHT22;12045;60.214;24.724;2023-03-01T06:03:27;-0.70;99.90
23729;DHT22;12045;60.214;24.724;2023-03-01T06:05:58;2.60;99.90
23729;DHT22;12045;60.214;24.724;2023-03-01T06:08:26;-0.90;99.90
23729;DHT22;12045;60.214;24.724;2023-03-01T06:10:54;-0.50;99.90
23729;DHT22;12045;60.214;24.724;2023-03-01T06:13:23;2.80;99.90
23729;DHT22;12045;60.214;24.724;2023-03-01T06:15:51;-0.70;99.90
23729;DHT22;12045;60.214;24.724;2023-03-01T06:18:19;-1.00;99.90
23729;DHT22;12045;60.214;24.724;2023-03-01T06:20:55;0.40;99.90
23729;DHT22;12045;60.214;24.724;2023-03-01T06:23:23;2.40;99.90
23729;DHT22;12045;60.214;24.724;2023-03-01T06:25:51;2.00;99.90
23729;DHT22;12045;60.214;24.724;2023-03-01T06:28:19;1.50;99.90
23729;DHT22;12045;60.214;24.724;2023-03-01T06:30:47;1.50;99.90
23729;DHT22;12045;60.214;24.724;2023-03-01T06:33:15;1.60;99.90
23729;DHT22;12045;60.214;24.724;2023-03-01T06:35:42;2.50;99.90
23729;DHT22;12045;60.214;24.724;2023-03-01T06:38:10;2.10;99.90
23729;DHT22;12045;60.214;24.724;2023-03-01T06:40:37;0.70;99.90
23729;DHT22;12045;60.214;24.724;2023-03-01T06:43:05;0.70;99.90
23729;DHT22;12045;60.214;24.724;2023-03-01T06:45:34;2.40;99.90
23729;DHT22;12045;60.214;24.724;2023-03-01T06:48:06;0.10;99.90
23729;DHT22;12045;60.214;24.724;2023-03-01T06:50:34;-0.60;99.90
23729;DHT22;12045;60.214;24.724;2023-03-01T06:53:02;1.60;99.90
23729;DHT22;12045;60.214;24.724;2023-03-01T06:55:30;1.50;99.90
23729;DHT22;12045;60.214;24.724;2023-03-01T06:57:59;-0.40;99.90
23729;DHT22;12045;60.214;24.724;2023-03-01T07:00:28;0.30;99.90
23729;DHT22;12045;60.214;24.724;2023-03-01T07:02:58;2.70;99.90
23729;DHT22;12045;60.214;24.724;2023-03-01T07:05:26;0.50;99.90
23729;DHT22;12045;60.214;24.724;2023-03-01T07:07:54;2.60;99.90
23729;DHT22;12045;60.214;24.724;2023-03-01T07:10:23;-0.40;99.90
23729;DHT22;12045;60.214;24.724;2023-03-01T07:12:53;0.60;99.90
23729;DHT22;12045;60.214;24.724;2023-03-01T07:15:21;0.80;99.90
23729;DHT22;12045;60.214;24.724;2023-03-01T07:17:48;2.40;99.90
23729;DHT22;12045;60.214;24.724;2023-03-01T07:20:19;0.20;99.90
23729;DHT22;12045;60.214;24.724;2023-03-01T07:22:49;2.70;99.90
23729;DHT22;12045;60.214;24.724;2023-03-01T07:25:17;3.10;99.90
23729;DHT22;12045;60.214;24.724;2023-03-01T07:27:49;2.30;99.90
23729;DHT22;12045;60.214;24.724;2023-03-01T07:30:17;2.70;99.90
23729;DHT22;12045;60.214;24.724;2023-03-01T07:32:46;4.00;99.90
23729;DHT22;12045;60.214;24.724;2023-03-01T07:35:15;-0.40;99.90
23729;DHT22;12045;60.214;24.724;2023-03-01T07:37:43;3.00;99.90
23729;DHT22;12045;60.214;24.724;2023-03-01T07:40:11;2.70;99.90
23729;DHT22;12045;60.214;24.724;2023-03-01T07:42:39;0.70;99.90
23729;DHT22;12045;60.214;24.724;2023-03-01T07:45:07;3.30;99.90
23729;DHT22;12045;60.214;24.724;2023-03-01T07:47:36;0.20;99.90
23729;DHT22;12045;60.214;24.724;2023-03-01T07:50:04;2.30;99.90
23729;DHT22;12045;60.214;24.724;2023-03-01T07:52:35;1.20;99.90
23729;DHT22;12045;60.214;24.724;2023-03-01T07:55:03;1.80;99.90
23729;DHT22;12045;60.214;24.724;2023-03-01T07:57:30;1.00;99.90
23729;DHT22;12045;60.214;24.724;2023-03-01T07:59:59;1.50;99.90
23729;DHT22;12045;60.214;24.724;2023-03-01T08:02:34;3.30;99.90
23729;DHT22;12045;60.214;24.724;2023-03-01T08:05:03;1.90;99.90
23729;DHT22;12045;60.214;24.724;2023-03-01T08:07:32;1.50;99.90
23729;DHT22;12045;60.214;24.724;2023-03-01T08:10:00;3.40;99.90
23729;DHT22;12045;60.214;24.724;2023-03-01T08:12:27;2.60;99.90
23729;DHT22;12045;60.214;24.724;2023-03-01T08:14:55;3.00;99.90
23729;DHT22;12045;60.214;24.724;2023-03-01T08:17:26;2.40;99.90
23729;DHT22;12045;60.214;24.724;2023-03-01T08:19:55;2.50;99.90
23729;DHT22;12045;60.214;24.724;2023-03-01T08:22:22;3.90;99.90
23729;DHT22;12045;60.214;24.724;2023-03-01T08:24:49;4.20;99.90
23729;DHT22;12045;60.214;24.724;2023-03-01T08:27:18;2.80;99.90
23729;DHT22;12045;60.214;24.724;2023-03-01T08:29:47;1.80;99.90
23729;DHT22;12045;60.214;24.724;2023-03-01T08:32:14;1.90;99.90
23729;DHT22;12045;60.214;24.724;2023-03-01T08:34:42;2.70;99.90
23729;DHT22;12045;60.214;24.724;2023-03-01T08:37:09;3.70;99.90
23729;DHT22;12045;60.214;24.724;2023-03-01T08:39:37;2.60;99.90
23729;DHT22;12045;60.214;24.724;2023-03-01T08:42:04;2.50;99.90
23729;DHT22;12045;60.214;24.724;2023-03-01T08:44:32;3.70;99.90
23729;DHT22;12045;60.214;24.724;2023-03-01T08:46:59;3.00;99.90
23729;DHT22;12045;60.214;24.724;2023-03-01T08:49:27;3.30;99.90
23729;DHT22;12045;60.214;24.724;2023-03-01T08:51:54;3.10;99.90
23729;DHT22;12045;60.214;24.724;2023-03-01T08:54:22;3.30;99.90
23729;DHT22;12045;60.214;24.724;2023-03-01T08:56:50;3.40;99.90
23729;DHT22;12045;60.214;24.724;2023-03-01T08:59:18;2.90;99.90
23729;DHT22;12045;60.214;24.724;2023-03-01T09:01:50;3.60;99.90
23729;DHT22;12045;60.214;24.724;2023-03-01T09:04:19;2.90;99.90
23729;DHT22;12045;60.214;24.724;2023-03-01T09:06:46;3.20;99.90
23729;DHT22;12045;60.214;24.724;2023-03-01T09:09:18;3.70;99.90
23729;DHT22;12045;60.214;24.724;2023-03-01T09:11:49;4.10;99.90
23729;DHT22;12045;60.214;24.724;2023-03-01T09:14:26;3.20;99.90
23729;DHT22;12045;60.214;24.724;2023-03-01T09:16:54;3.20;99.90
23729;DHT22;12045;60.214;24.724;2023-03-01T09:19:25;3.00;99.90
23729;DHT22;12045;60.214;24.724;2023-03-01T09:22:11;3.70;99.90
23729;DHT22;12045;60.214;24.724;2023-03-01T09:24:39;4.20;99.90
23729;DHT22;12045;60.214;24.724;2023-03-01T09:27:11;4.70;99.90
23729;DHT22;12045;60.214;24.724;2023-03-01T09:29:52;3.80;99.90
23729;DHT22;12045;60.214;24.724;2023-03-01T09:32:24;3.40;99.90
23729;DHT22;12045;60.214;24.724;2023-03-01T09:34:58;3.40;99.90
23729;DHT22;12045;60.214;24.724;2023-03-01T09:37:35;4.20;99.90
23729;DHT22;12045;60.214;24.724;2023-03-01T09:40:20;3.50;99.90
23729;DHT22;12045;60.214;24.724;2023-03-01T09:43:19;3.60;99.90
23729;DHT22;12045;60.214;24.724;2023-03-01T09:45:54;4.20;99.90
23729;DHT22;12045;60.214;24.724;2023-03-01T09:48:46;4.00;99.90
23729;DHT22;12045;60.214;24.724;2023-03-01T09:51:29;3.60;99.90
23729;DHT22;12045;60.214;24.724;2023-03-01T09:54:13;3.60;99.90
23729;DHT22;12045;60.214;24.724;2023-03-01T09:57:01;5.30;99.90
23729;DHT22;12045;60.214;24.724;2023-03-01T10:00:12;3.70;99.90
23729;DHT22;12045;60.214;24.724;2023-03-01T10:03:07;3.80;99.90
23729;DHT22;12045;60.214;24.724;2023-03-01T10:05:57;4.00;99.90
23729;DHT22;12045;60.214;24.724;2023-03-01T10:11:01;4.70;99.90
23729;DHT22;12045;60.214;24.724;2023-03-01T10:13:48;4.60;99.90
23729;DHT22;12045;60.214;24.724;2023-03-01T10:16:58;4.90;99.90
23729;DHT22;12045;60.214;24.724;2023-03-01T10:19:36;4.50;99.90
23729;DHT22;12045;60.214;24.724;2023-03-01T10:25:12;4.50;99.90
23729;DHT22;12045;60.214;24.724;2023-03-01T10:28:05;5.10;99.90
23729;DHT22;12045;60.214;24.724;2023-03-01T10:30:39;5.10;99.90
23729;DHT22;12045;60.214;24.724;2023-03-01T10:33:31;4.50;99.90
23729;DHT22;12045;60.214;24.724;2023-03-01T10:36:03;4.80;99.90
23729;DHT22;12045;60.214;24.724;2023-03-01T10:38:51;5.00;99.90
23729;DHT22;12045;60.214;24.724;2023-03-01T10:41:25;5.00;99.90
23729;DHT22;12045;60.214;24.724;2023-03-01T10:43:58;4.60;99.90
23729;DHT22;12045;60.214;24.724;2023-03-01T10:46:37;5.20;99.90
23729;DHT22;12045;60.214;24.724;2023-03-01T10:52:23;4.70;99.90
23729;DHT22;12045;60.214;24.724;2023-03-01T10:55:03;5.30;99.90
23729;DHT22;12045;60.214;24.724;2023-03-01T10:57:39;5.80;99.90
23729;DHT22;12045;60.214;24.724;2023-03-01T11:00:24;6.50;99.90
23729;DHT22;12045;60.214;24.724;2023-03-01T11:03:16;5.30;99.90
23729;DHT22;12045;60.214;24.724;2023-03-01T11:08:55;5.20;99.90
23729;DHT22;12045;60.214;24.724;2023-03-01T11:11:34;6.10;99.90
23729;DHT22;12045;60.214;24.724;2023-03-01T11:14:17;5.50;99.90
23729;DHT22;12045;60.214;24.724;2023-03-01T11:17:05;4.90;99.90
23729;DHT22;12045;60.214;24.724;2023-03-01T11:26:08;5.30;99.90
23729;DHT22;12045;60.214;24.724;2023-03-01T11:28:56;5.20;99.90
23729;DHT22;12045;60.214;24.724;2023-03-01T11:31:34;5.30;99.90
23729;DHT22;12045;60.214;24.724;2023-03-01T11:34:19;6.20;99.90
23729;DHT22;12045;60.214;24.724;2023-03-01T11:36:59;5.50;99.90
23729;DHT22;12045;60.214;24.724;2023-03-01T11:40:05;5.90;99.90
23729;DHT22;12045;60.214;24.724;2023-03-01T11:43:11;5.40;99.90
23729;DHT22;12045;60.214;24.724;2023-03-01T11:51:41;5.70;99.90
23729;DHT22;12045;60.214;24.724;2023-03-01T12:10:26;5.40;99.90
23729;DHT22;12045;60.214;24.724;2023-03-01T12:22:28;5.50;99.90
23729;DHT22;12045;60.214;24.724;2023-03-01T12:33:12;5.70;99.90
23729;DHT22;12045;60.214;24.724;2023-03-01T12:41:31;5.20;99.90
23729;DHT22;12045;60.214;24.724;2023-03-01T12:49:28;5.90;99.90
23729;DHT22;12045;60.214;24.724;2023-03-01T12:52:43;5.30;99.90
23729;DHT22;12045;60.214;24.724;2023-03-01T13:12:45;6.00;99.90
23729;DHT22;12045;60.214;24.724;2023-03-01T13:15:33;5.90;99.90
23729;DHT22;12045;60.214;24.724;2023-03-01T13:18:50;6.00;99.90
23729;DHT22;12045;60.214;24.724;2023-03-01T13:20:58;6.00;99.90
23729;DHT22;12045;60.214;24.724;2023-03-01T13:23:29;5.90;99.90
23729;DHT22;12045;60.214;24.724;2023-03-01T13:26:10;5.70;99.90
23729;DHT22;12045;60.214;24.724;2023-03-01T13:33:53;6.80;99.90
23729;DHT22;12045;60.214;24.724;2023-03-01T13:39:18;5.90;99.90
23729;DHT22;12045;60.214;24.724;2023-03-01T13:41:55;5.20;99.90
23729;DHT22;12045;60.214;24.724;2023-03-01T13:44:25;5.80;99.90
23729;DHT22;12045;60.214;24.724;2023-03-01T13:49:51;6.10;99.90
23729;DHT22;12045;60.214;24.724;2023-03-01T13:55:10;5.20;99.90
23729;DHT22;12045;60.214;24.724;2023-03-01T13:57:57;6.10;99.90
23729;DHT22;12045;60.214;24.724;2023-03-01T14:00:37;5.60;99.90
23729;DHT22;12045;60.214;24.724;2023-03-01T14:03:19;5.80;99.90
23729;DHT22;12045;60.214;24.724;2023-03-01T14:06:14;5.80;99.90
23729;DHT22;12045;60.214;24.724;2023-03-01T14:08:49;5.20;99.90
23729;DHT22;12045;60.214;24.724;2023-03-01T14:17:10;5.60;99.90
23729;DHT22;12045;60.214;24.724;2023-03-01T14:19:43;5.50;99.90
23729;DHT22;12045;60.214;24.724;2023-03-01T14:22:23;5.90;99.90
23729;DHT22;12045;60.214;24.724;2023-03-01T14:24:56;5.30;99.90
23729;DHT22;12045;60.214;24.724;2023-03-01T14:27:39;5.70;99.90
23729;DHT22;12045;60.214;24.724;2023-03-01T14:30:41;5.30;99.90
23729;DHT22;12045;60.214;24.724;2023-03-01T14:36:01;5.30;99.90
23729;DHT22;12045;60.214;24.724;2023-03-01T14:38:41;5.00;99.90
23729;DHT22;12045;60.214;24.724;2023-03-01T14:41:20;4.90;99.90
23729;DHT22;12045;60.214;24.724;2023-03-01T14:43:56;5.20;99.90
23729;DHT22;12045;60.214;24.724;2023-03-01T14:49:11;5.50;99.90
23729;DHT22;12045;60.214;24.724;2023-03-01T14:51:42;4.90;99.90
23729;DHT22;12045;60.214;24.724;2023-03-01T14:57:00;5.20;99.90
23729;DHT22;12045;60.214;24.724;2023-03-01T14:59:33;5.10;99.90
23729;DHT22;12045;60.214;24.724;2023-03-01T15:02:01;5.40;99.90
23729;DHT22;12045;60.214;24.724;2023-03-01T15:04:29;5.10;99.90
23729;DHT22;12045;60.214;24.724;2023-03-01T15:06:58;5.80;99.90
23729;DHT22;12045;60.214;24.724;2023-03-01T15:09:34;5.70;99.90
23729;DHT22;12045;60.214;24.724;2023-03-01T15:14:57;4.30;99.90
23729;DHT22;12045;60.214;24.724;2023-03-01T15:20:03;5.60;99.90
23729;DHT22;12045;60.214;24.724;2023-03-01T15:22:31;5.20;99.90
23729;DHT22;12045;60.214;24.724;2023-03-01T15:24:59;5.30;99.90
23729;DHT22;12045;60.214;24.724;2023-03-01T15:27:27;5.60;99.90
23729;DHT22;12045;60.214;24.724;2023-03-01T15:29:59;5.30;99.90
23729;DHT22;12045;60.214;24.724;2023-03-01T15:32:35;5.00;99.90
23729;DHT22;12045;60.214;24.724;2023-03-01T15:35:42;5.60;99.90
23729;DHT22;12045;60.214;24.724;2023-03-01T15:41:28;5.10;99.90
23729;DHT22;12045;60.214;24.724;2023-03-01T15:43:59;5.00;99.90
23729;DHT22;12045;60.214;24.724;2023-03-01T15:46:33;5.80;99.90
23729;DHT22;12045;60.214;24.724;2023-03-01T15:49:04;5.60;99.90
23729;DHT22;12045;60.214;24.724;2023-03-01T15:51:37;4.40;99.90
23729;DHT22;12045;60.214;24.724;2023-03-01T15:54:19;4.90;99.90
23729;DHT22;12045;60.214;24.724;2023-03-01T15:56:48;5.30;99.90
23729;DHT22;12045;60.214;24.724;2023-03-01T15:59:15;5.20;99.90
23729;DHT22;12045;60.214;24.724;2023-03-01T16:01:44;5.10;99.90
23729;DHT22;12045;60.214;24.724;2023-03-01T16:04:13;4.80;99.90
23729;DHT22;12045;60.214;24.724;2023-03-01T16:06:48;5.50;99.90
23729;DHT22;12045;60.214;24.724;2023-03-01T16:09:25;5.00;99.90
23729;DHT22;12045;60.214;24.724;2023-03-01T16:11:53;5.00;99.90
23729;DHT22;12045;60.214;24.724;2023-03-01T16:14:21;4.90;99.90
23729;DHT22;12045;60.214;24.724;2023-03-01T16:16:50;5.50;99.90
23729;DHT22;12045;60.214;24.724;2023-03-01T16:19:17;5.40;99.90
23729;DHT22;12045;60.214;24.724;2023-03-01T16:21:45;5.50;99.90
23729;DHT22;12045;60.214;24.724;2023-03-01T16:24:14;5.50;99.90
23729;DHT22;12045;60.214;24.724;2023-03-01T16:26:41;5.20;99.90
23729;DHT22;12045;60.214;24.724;2023-03-01T16:29:09;4.80;99.90
23729;DHT22;12045;60.214;24.724;2023-03-01T16:31:36;5.50;99.90
23729;DHT22;12045;60.214;24.724;2023-03-01T16:34:04;5.20;99.90
23729;DHT22;12045;60.214;24.724;2023-03-01T16:36:31;5.90;99.90
23729;DHT22;12045;60.214;24.724;2023-03-01T16:38:59;5.60;99.90
23729;DHT22;12045;60.214;24.724;2023-03-01T16:41:28;5.50;99.90
23729;DHT22;12045;60.214;24.724;2023-03-01T16:43:56;5.10;99.90
23729;DHT22;12045;60.214;24.724;2023-03-01T16:46:27;5.40;99.90
23729;DHT22;12045;60.214;24.724;2023-03-01T16:48:55;5.00;99.90
23729;DHT22;12045;60.214;24.724;2023-03-01T16:51:23;4.80;99.90
23729;DHT22;12045;60.214;24.724;2023-03-01T16:53:51;4.80;99.90
23729;DHT22;12045;60.214;24.724;2023-03-01T16:56:19;5.50;99.90
23729;DHT22;12045;60.214;24.724;2023-03-01T16:58:47;5.20;99.90
23729;DHT22;12045;60.214;24.724;2023-03-01T17:01:20;5.10;99.90
23729;DHT22;12045;60.214;24.724;2023-03-01T17:03:49;5.10;99.90
23729;DHT22;12045;60.214;24.724;2023-03-01T17:06:20;4.60;99.90
23729;DHT22;12045;60.214;24.724;2023-03-01T17:08:49;5.10;99.90
23729;DHT22;12045;60.214;24.724;2023-03-01T17:11:19;5.70;99.90
23729;DHT22;12045;60.214;24.724;2023-03-01T17:13:47;4.40;99.90
23729;DHT22;12045;60.214;24.724;2023-03-01T17:16:17;4.60;99.90
23729;DHT22;12045;60.214;24.724;2023-03-01T17:18:46;5.70;99.90
23729;DHT22;12045;60.214;24.724;2023-03-01T17:21:14;5.20;99.90
23729;DHT22;12045;60.214;24.724;2023-03-01T17:23:43;5.10;99.90
23729;DHT22;12045;60.214;24.724;2023-03-01T17:26:11;5.50;99.90
23729;DHT22;12045;60.214;24.724;2023-03-01T17:28:40;5.10;99.90
23729;DHT22;12045;60.214;24.724;2023-03-01T17:31:07;4.80;99.90
23729;DHT22;12045;60.214;24.724;2023-03-01T17:33:35;5.20;99.90
23729;DHT22;12045;60.214;24.724;2023-03-01T17:36:02;4.40;99.90
23729;DHT22;12045;60.214;24.724;2023-03-01T17:38:30;4.30;99.90
23729;DHT22;12045;60.214;24.724;2023-03-01T17:40:59;4.60;99.90
23729;DHT22;12045;60.214;24.724;2023-03-01T17:43:27;4.80;99.90
23729;DHT22;12045;60.214;24.724;2023-03-01T17:45:55;4.20;99.90
23729;DHT22;12045;60.214;24.724;2023-03-01T17:48:23;5.40;99.90
23729;DHT22;12045;60.214;24.724;2023-03-01T17:50:52;4.00;99.90
23729;DHT22;12045;60.214;24.724;2023-03-01T17:53:19;4.10;99.90
23729;DHT22;12045;60.214;24.724;2023-03-01T17:55:47;5.50;99.90
23729;DHT22;12045;60.214;24.724;2023-03-01T17:58:20;3.90;99.90
23729;DHT22;12045;60.214;24.724;2023-03-01T18:00:49;5.00;99.90
23729;DHT22;12045;60.214;24.724;2023-03-01T18:03:17;5.00;99.90
23729;DHT22;12045;60.214;24.724;2023-03-01T18:05:45;3.90;99.90